Ana Sayfa
METAR-TAF:

METAR-TAF

Havaalanları :

Bentonville Municipal Airport/Louise M Thaden Field

Bentonville, Arkansas, Amerika Birleşik Devletleri

Enlem: 36-21N, Boylam: 094-13W, yükseklik: 395 m

Güncel hava durumu gözlemi

Rapor saat 12:56 UTC de 25 dakika önce yapıldı.
Rüzgar güney/güneydoğudan 4 kt
Sıcaklık 21°C
Nem 88%
Basınç 1012 hPa
Görüş mesafesi: 16.1 km
2300 ft yükseklikte az bulutlu
2800 ft yükseklikte parçalı bulutlu
4700 ft yükseklikte parçalı çok bulutlu

METAR: KVBT 231256Z AUTO 15004KT 10SM FEW023 SCT028 BKN047 21/19 A2989 RMK AO2 SLP115 T02110194 $

Saat: 08:21 (13:21 UTC)


TAF: eksik

4.000'den fazla havaalanı için hava durumu gözlemleri ve tahminleri (METAR ve TAF raporları).

Kullanılabilir istasyonlar harita üzerinde sarı ve kırmızı noktalarla gösterilir.

İstasyonun adını görmek için fareyi noktanın üzerinde gezdirin.

Sonrasında hava gözlem ve tahminlerini görmek için tıklayın.

Haritayı değiştirmek için: yaklaştırmak için siyah artı işaretli yeşil düğmeye ve uzaklaştırmak için de eksi işaretli düğmeye hızla tıklayın; bitişik haritalar için yeşil okları kullanın.


METAR-TAF: